sensor_id;sensor_type;location;lat;lon;timestamp;temperature;humidity
14670;DHT22;7423;48.722;9.350;2023-02-01T00:00:57;6.80;99.90
14670;DHT22;7423;48.722;9.350;2023-02-01T00:03:23;6.80;99.90
14670;DHT22;7423;48.722;9.350;2023-02-01T00:05:58;6.80;99.90
14670;DHT22;7423;48.722;9.350;2023-02-01T00:08:25;6.90;99.90
14670;DHT22;7423;48.722;9.350;2023-02-01T00:11:03;6.80;99.90
14670;DHT22;7423;48.722;9.350;2023-02-01T00:13:32;6.70;99.90
14670;DHT22;7423;48.722;9.350;2023-02-01T00:16:08;6.60;99.90
14670;DHT22;7423;48.722;9.350;2023-02-01T00:18:47;6.60;99.90
14670;DHT22;7423;48.722;9.350;2023-02-01T00:21:17;6.40;99.90
14670;DHT22;7423;48.722;9.350;2023-02-01T00:23:45;6.70;99.90
14670;DHT22;7423;48.722;9.350;2023-02-01T00:26:18;6.50;99.90
14670;DHT22;7423;48.722;9.350;2023-02-01T00:28:46;6.70;99.90
14670;DHT22;7423;48.722;9.350;2023-02-01T00:31:13;6.70;99.90
14670;DHT22;7423;48.722;9.350;2023-02-01T00:33:41;6.80;99.90
14670;DHT22;7423;48.722;9.350;2023-02-01T00:36:09;6.90;99.90
14670;DHT22;7423;48.722;9.350;2023-02-01T00:38:37;6.90;99.90
14670;DHT22;7423;48.722;9.350;2023-02-01T00:41:07;6.90;99.90
14670;DHT22;7423;48.722;9.350;2023-02-01T00:43:38;6.90;99.90
14670;DHT22;7423;48.722;9.350;2023-02-01T00:46:05;6.90;99.90
14670;DHT22;7423;48.722;9.350;2023-02-01T00:48:32;6.50;99.90
14670;DHT22;7423;48.722;9.350;2023-02-01T00:51:04;6.40;99.90
14670;DHT22;7423;48.722;9.350;2023-02-01T00:53:33;6.50;99.90
14670;DHT22;7423;48.722;9.350;2023-02-01T00:56:00;6.50;99.90
14670;DHT22;7423;48.722;9.350;2023-02-01T00:58:27;6.60;99.90
14670;DHT22;7423;48.722;9.350;2023-02-01T01:01:17;6.80;99.90
14670;DHT22;7423;48.722;9.350;2023-02-01T01:03:48;7.00;99.90
14670;DHT22;7423;48.722;9.350;2023-02-01T01:06:20;6.80;99.90
14670;DHT22;7423;48.722;9.350;2023-02-01T01:08:54;6.90;99.90
14670;DHT22;7423;48.722;9.350;2023-02-01T01:11:25;7.00;99.90
14670;DHT22;7423;48.722;9.350;2023-02-01T01:13:57;7.10;99.90
14670;DHT22;7423;48.722;9.350;2023-02-01T01:16:27;7.10;99.90
14670;DHT22;7423;48.722;9.350;2023-02-01T01:18:55;7.00;99.90
14670;DHT22;7423;48.722;9.350;2023-02-01T01:21:23;7.00;99.90
14670;DHT22;7423;48.722;9.350;2023-02-01T01:23:50;7.00;99.90
14670;DHT22;7423;48.722;9.350;2023-02-01T01:26:22;7.00;99.90
14670;DHT22;7423;48.722;9.350;2023-02-01T01:28:51;7.10;99.90
14670;DHT22;7423;48.722;9.350;2023-02-01T01:31:20;7.00;99.90
14670;DHT22;7423;48.722;9.350;2023-02-01T01:33:49;7.00;99.90
14670;DHT22;7423;48.722;9.350;2023-02-01T01:36:17;7.10;99.90
14670;DHT22;7423;48.722;9.350;2023-02-01T01:38:44;7.10;99.90
14670;DHT22;7423;48.722;9.350;2023-02-01T01:41:22;7.10;99.90
14670;DHT22;7423;48.722;9.350;2023-02-01T01:43:58;7.00;99.90
14670;DHT22;7423;48.722;9.350;2023-02-01T01:46:31;6.90;99.90
14670;DHT22;7423;48.722;9.350;2023-02-01T01:49:10;6.90;99.90
14670;DHT22;7423;48.722;9.350;2023-02-01T01:51:49;7.00;99.90
14670;DHT22;7423;48.722;9.350;2023-02-01T01:54:31;7.10;99.90
14670;DHT22;7423;48.722;9.350;2023-02-01T01:57:16;7.20;99.90
14670;DHT22;7423;48.722;9.350;2023-02-01T01:59:49;7.20;99.90
14670;DHT22;7423;48.722;9.350;2023-02-01T02:02:22;7.30;99.90
14670;DHT22;7423;48.722;9.350;2023-02-01T02:04:49;7.30;99.90
14670;DHT22;7423;48.722;9.350;2023-02-01T02:07:23;7.30;99.90
14670;DHT22;7423;48.722;9.350;2023-02-01T02:09:54;7.30;99.90
14670;DHT22;7423;48.722;9.350;2023-02-01T02:12:27;6.00;99.90
14670;DHT22;7423;48.722;9.350;2023-02-01T02:14:54;7.30;99.90
14670;DHT22;7423;48.722;9.350;2023-02-01T02:17:54;7.20;99.90
14670;DHT22;7423;48.722;9.350;2023-02-01T02:24:05;7.30;99.90
14670;DHT22;7423;48.722;9.350;2023-02-01T02:27:22;7.50;99.90
14670;DHT22;7423;48.722;9.350;2023-02-01T02:36:09;7.70;99.90
14670;DHT22;7423;48.722;9.350;2023-02-01T02:38:56;7.70;99.90
14670;DHT22;7423;48.722;9.350;2023-02-01T02:41:50;7.50;99.90
14670;DHT22;7423;48.722;9.350;2023-02-01T02:48:25;7.50;99.90
14670;DHT22;7423;48.722;9.350;2023-02-01T02:51:12;7.60;99.90
14670;DHT22;7423;48.722;9.350;2023-02-01T02:54:11;7.60;99.90
14670;DHT22;7423;48.722;9.350;2023-02-01T02:57:00;7.50;99.90
14670;DHT22;7423;48.722;9.350;2023-02-01T02:59:47;7.50;99.90
14670;DHT22;7423;48.722;9.350;2023-02-01T03:02:33;7.40;99.90
14670;DHT22;7423;48.722;9.350;2023-02-01T03:05:19;7.30;99.90
14670;DHT22;7423;48.722;9.350;2023-02-01T03:07:54;7.40;99.90
14670;DHT22;7423;48.722;9.350;2023-02-01T03:16:26;7.50;99.90
14670;DHT22;7423;48.722;9.350;2023-02-01T03:19:01;7.30;99.90
14670;DHT22;7423;48.722;9.350;2023-02-01T03:21:38;7.20;99.90
14670;DHT22;7423;48.722;9.350;2023-02-01T03:24:46;7.30;99.90
14670;DHT22;7423;48.722;9.350;2023-02-01T03:27:23;7.00;99.90
14670;DHT22;7423;48.722;9.350;2023-02-01T03:32:39;7.00;99.90
14670;DHT22;7423;48.722;9.350;2023-02-01T03:41:45;7.30;99.90
14670;DHT22;7423;48.722;9.350;2023-02-01T03:47:25;7.40;99.90
14670;DHT22;7423;48.722;9.350;2023-02-01T03:49:58;7.00;99.90
14670;DHT22;7423;48.722;9.350;2023-02-01T03:52:41;7.20;99.90
14670;DHT22;7423;48.722;9.350;2023-02-01T03:55:12;7.20;99.90
14670;DHT22;7423;48.722;9.350;2023-02-01T03:57:44;7.20;99.90
14670;DHT22;7423;48.722;9.350;2023-02-01T04:00:18;7.00;99.90
14670;DHT22;7423;48.722;9.350;2023-02-01T04:02:51;6.60;99.90
14670;DHT22;7423;48.722;9.350;2023-02-01T04:05:19;6.70;99.90
14670;DHT22;7423;48.722;9.350;2023-02-01T04:07:46;6.70;99.90
14670;DHT22;7423;48.722;9.350;2023-02-01T04:10:13;6.80;99.90
14670;DHT22;7423;48.722;9.350;2023-02-01T04:12:40;6.90;99.90
14670;DHT22;7423;48.722;9.350;2023-02-01T04:15:08;7.00;99.90
14670;DHT22;7423;48.722;9.350;2023-02-01T04:17:35;7.10;99.90
14670;DHT22;7423;48.722;9.350;2023-02-01T04:20:01;7.10;99.90
14670;DHT22;7423;48.722;9.350;2023-02-01T04:22:28;7.20;99.90
14670;DHT22;7423;48.722;9.350;2023-02-01T04:24:56;7.30;99.90
14670;DHT22;7423;48.722;9.350;2023-02-01T04:27:22;7.20;99.90
14670;DHT22;7423;48.722;9.350;2023-02-01T04:29:48;7.20;99.90
14670;DHT22;7423;48.722;9.350;2023-02-01T04:32:18;7.30;99.90
14670;DHT22;7423;48.722;9.350;2023-02-01T04:34:46;7.30;99.90
14670;DHT22;7423;48.722;9.350;2023-02-01T04:37:13;7.40;99.90
14670;DHT22;7423;48.722;9.350;2023-02-01T04:39:40;7.40;99.90
14670;DHT22;7423;48.722;9.350;2023-02-01T04:42:06;7.50;99.90
14670;DHT22;7423;48.722;9.350;2023-02-01T04:44:35;7.40;99.90
14670;DHT22;7423;48.722;9.350;2023-02-01T04:47:03;7.50;99.90
14670;DHT22;7423;48.722;9.350;2023-02-01T04:49:30;7.40;99.90
14670;DHT22;7423;48.722;9.350;2023-02-01T04:51:57;7.40;99.90
14670;DHT22;7423;48.722;9.350;2023-02-01T04:54:24;7.20;99.90
14670;DHT22;7423;48.722;9.350;2023-02-01T04:56:51;7.10;99.90
14670;DHT22;7423;48.722;9.350;2023-02-01T04:59:18;7.10;99.90
14670;DHT22;7423;48.722;9.350;2023-02-01T05:01:45;7.20;99.90
14670;DHT22;7423;48.722;9.350;2023-02-01T05:04:14;7.40;99.90
14670;DHT22;7423;48.722;9.350;2023-02-01T05:06:41;7.60;99.90
14670;DHT22;7423;48.722;9.350;2023-02-01T05:09:08;7.50;99.90
14670;DHT22;7423;48.722;9.350;2023-02-01T05:11:35;7.50;99.90
14670;DHT22;7423;48.722;9.350;2023-02-01T05:14:20;7.60;99.90
14670;DHT22;7423;48.722;9.350;2023-02-01T05:16:47;7.70;99.90
14670;DHT22;7423;48.722;9.350;2023-02-01T05:19:14;7.60;99.90
14670;DHT22;7423;48.722;9.350;2023-02-01T05:21:41;7.60;99.90
14670;DHT22;7423;48.722;9.350;2023-02-01T05:24:08;7.60;99.90
14670;DHT22;7423;48.722;9.350;2023-02-01T05:26:47;7.50;99.90
14670;DHT22;7423;48.722;9.350;2023-02-01T05:29:16;7.70;99.90
14670;DHT22;7423;48.722;9.350;2023-02-01T05:31:46;7.70;99.90
14670;DHT22;7423;48.722;9.350;2023-02-01T05:34:15;7.80;99.90
14670;DHT22;7423;48.722;9.350;2023-02-01T05:36:42;7.60;99.90
14670;DHT22;7423;48.722;9.350;2023-02-01T05:39:09;7.70;99.90
14670;DHT22;7423;48.722;9.350;2023-02-01T05:41:37;7.60;99.90
14670;DHT22;7423;48.722;9.350;2023-02-01T05:44:04;7.50;99.90
14670;DHT22;7423;48.722;9.350;2023-02-01T05:46:34;7.60;99.90
14670;DHT22;7423;48.722;9.350;2023-02-01T05:49:02;7.40;99.90
14670;DHT22;7423;48.722;9.350;2023-02-01T05:51:29;7.40;99.90
14670;DHT22;7423;48.722;9.350;2023-02-01T05:53:56;7.40;99.90
14670;DHT22;7423;48.722;9.350;2023-02-01T05:56:23;7.50;99.90
14670;DHT22;7423;48.722;9.350;2023-02-01T05:58:50;7.50;99.90
14670;DHT22;7423;48.722;9.350;2023-02-01T06:01:17;7.60;99.90
14670;DHT22;7423;48.722;9.350;2023-02-01T06:03:43;7.80;99.90
14670;DHT22;7423;48.722;9.350;2023-02-01T06:06:10;7.90;99.90
14670;DHT22;7423;48.722;9.350;2023-02-01T06:08:37;7.90;99.90
14670;DHT22;7423;48.722;9.350;2023-02-01T06:11:07;7.80;99.90
14670;DHT22;7423;48.722;9.350;2023-02-01T06:13:34;7.80;99.90
14670;DHT22;7423;48.722;9.350;2023-02-01T06:16:02;7.80;99.90
14670;DHT22;7423;48.722;9.350;2023-02-01T06:18:29;7.80;99.90
14670;DHT22;7423;48.722;9.350;2023-02-01T06:20:58;7.70;99.90
14670;DHT22;7423;48.722;9.350;2023-02-01T06:23:29;7.70;99.90
14670;DHT22;7423;48.722;9.350;2023-02-01T06:26:05;7.60;99.90
14670;DHT22;7423;48.722;9.350;2023-02-01T06:28:34;7.30;99.90
14670;DHT22;7423;48.722;9.350;2023-02-01T06:31:05;7.40;99.90
14670;DHT22;7423;48.722;9.350;2023-02-01T06:33:36;7.40;99.90
14670;DHT22;7423;48.722;9.350;2023-02-01T06:36:05;7.50;99.90
14670;DHT22;7423;48.722;9.350;2023-02-01T06:38:34;7.40;99.90
14670;DHT22;7423;48.722;9.350;2023-02-01T06:41:02;7.60;99.90
14670;DHT22;7423;48.722;9.350;2023-02-01T06:43:30;7.70;99.90
14670;DHT22;7423;48.722;9.350;2023-02-01T06:46:04;7.60;99.90
14670;DHT22;7423;48.722;9.350;2023-02-01T06:48:33;7.80;99.90
14670;DHT22;7423;48.722;9.350;2023-02-01T06:51:00;8.00;99.90
14670;DHT22;7423;48.722;9.350;2023-02-01T06:53:28;8.00;99.90
14670;DHT22;7423;48.722;9.350;2023-02-01T06:55:57;8.00;99.90
14670;DHT22;7423;48.722;9.350;2023-02-01T06:58:33;8.00;99.90
14670;DHT22;7423;48.722;9.350;2023-02-01T07:01:07;8.10;99.90
14670;DHT22;7423;48.722;9.350;2023-02-01T07:03:35;8.00;99.90
14670;DHT22;7423;48.722;9.350;2023-02-01T07:06:03;8.00;99.90
14670;DHT22;7423;48.722;9.350;2023-02-01T07:08:32;8.10;99.90
14670;DHT22;7423;48.722;9.350;2023-02-01T07:11:05;8.20;99.90
14670;DHT22;7423;48.722;9.350;2023-02-01T07:13:33;8.20;99.90
14670;DHT22;7423;48.722;9.350;2023-02-01T07:16:01;8.20;99.90
14670;DHT22;7423;48.722;9.350;2023-02-01T07:18:30;8.10;99.90
14670;DHT22;7423;48.722;9.350;2023-02-01T07:20:58;8.20;99.90
14670;DHT22;7423;48.722;9.350;2023-02-01T07:23:26;8.30;99.90
14670;DHT22;7423;48.722;9.350;2023-02-01T07:25:54;8.30;99.90
14670;DHT22;7423;48.722;9.350;2023-02-01T07:28:22;8.30;99.90
14670;DHT22;7423;48.722;9.350;2023-02-01T07:30:49;8.30;99.90
14670;DHT22;7423;48.722;9.350;2023-02-01T07:33:21;8.30;99.90
14670;DHT22;7423;48.722;9.350;2023-02-01T07:35:49;8.40;99.90
14670;DHT22;7423;48.722;9.350;2023-02-01T07:38:17;8.30;99.90
14670;DHT22;7423;48.722;9.350;2023-02-01T07:40:44;8.30;99.90
14670;DHT22;7423;48.722;9.350;2023-02-01T07:43:11;8.20;99.90
14670;DHT22;7423;48.722;9.350;2023-02-01T07:45:38;8.20;99.90
14670;DHT22;7423;48.722;9.350;2023-02-01T07:48:05;8.30;99.90
14670;DHT22;7423;48.722;9.350;2023-02-01T07:50:32;8.40;99.90
14670;DHT22;7423;48.722;9.350;2023-02-01T07:53:00;8.50;99.90
14670;DHT22;7423;48.722;9.350;2023-02-01T07:55:27;8.20;99.90
14670;DHT22;7423;48.722;9.350;2023-02-01T07:57:57;8.20;99.90
14670;DHT22;7423;48.722;9.350;2023-02-01T08:00:25;8.40;99.90
14670;DHT22;7423;48.722;9.350;2023-02-01T08:03:15;8.30;99.90
14670;DHT22;7423;48.722;9.350;2023-02-01T08:05:42;8.20;99.90
14670;DHT22;7423;48.722;9.350;2023-02-01T08:08:09;8.00;99.90
14670;DHT22;7423;48.722;9.350;2023-02-01T08:10:38;8.00;99.90
14670;DHT22;7423;48.722;9.350;2023-02-01T08:13:04;8.00;99.90
14670;DHT22;7423;48.722;9.350;2023-02-01T08:15:31;8.10;99.90
14670;DHT22;7423;48.722;9.350;2023-02-01T08:17:58;7.90;99.90
14670;DHT22;7423;48.722;9.350;2023-02-01T08:20:26;7.90;99.90
14670;DHT22;7423;48.722;9.350;2023-02-01T08:22:53;7.70;99.90
14670;DHT22;7423;48.722;9.350;2023-02-01T08:25:21;7.60;99.90
14670;DHT22;7423;48.722;9.350;2023-02-01T08:27:50;7.60;99.90
14670;DHT22;7423;48.722;9.350;2023-02-01T08:30:17;7.60;99.90
14670;DHT22;7423;48.722;9.350;2023-02-01T08:32:44;7.50;99.90
14670;DHT22;7423;48.722;9.350;2023-02-01T08:35:11;7.40;99.90
14670;DHT22;7423;48.722;9.350;2023-02-01T08:37:38;7.30;99.90
14670;DHT22;7423;48.722;9.350;2023-02-01T08:40:06;7.30;99.90
14670;DHT22;7423;48.722;9.350;2023-02-01T08:42:33;7.30;99.90
14670;DHT22;7423;48.722;9.350;2023-02-01T08:45:23;7.30;99.90
14670;DHT22;7423;48.722;9.350;2023-02-01T08:47:52;7.30;99.90
14670;DHT22;7423;48.722;9.350;2023-02-01T08:50:20;7.30;99.90
14670;DHT22;7423;48.722;9.350;2023-02-01T08:52:48;7.20;99.90
14670;DHT22;7423;48.722;9.350;2023-02-01T08:55:15;7.30;99.90
14670;DHT22;7423;48.722;9.350;2023-02-01T08:57:42;7.40;99.90
14670;DHT22;7423;48.722;9.350;2023-02-01T09:00:15;7.50;99.90
14670;DHT22;7423;48.722;9.350;2023-02-01T09:02:43;7.40;99.90
14670;DHT22;7423;48.722;9.350;2023-02-01T09:05:11;7.30;99.90
14670;DHT22;7423;48.722;9.350;2023-02-01T09:07:38;7.60;99.90
14670;DHT22;7423;48.722;9.350;2023-02-01T09:10:06;7.60;99.90
14670;DHT22;7423;48.722;9.350;2023-02-01T09:12:34;7.60;99.90
14670;DHT22;7423;48.722;9.350;2023-02-01T09:15:01;7.50;99.90
14670;DHT22;7423;48.722;9.350;2023-02-01T09:17:29;7.50;99.90
14670;DHT22;7423;48.722;9.350;2023-02-01T09:19:56;7.70;99.90
14670;DHT22;7423;48.722;9.350;2023-02-01T09:22:24;7.70;99.90
14670;DHT22;7423;48.722;9.350;2023-02-01T09:24:52;7.70;99.90
14670;DHT22;7423;48.722;9.350;2023-02-01T09:27:20;7.80;99.90
14670;DHT22;7423;48.722;9.350;2023-02-01T09:29:48;7.80;99.90
14670;DHT22;7423;48.722;9.350;2023-02-01T09:32:20;7.90;99.90
14670;DHT22;7423;48.722;9.350;2023-02-01T09:34:52;8.00;99.90
14670;DHT22;7423;48.722;9.350;2023-02-01T09:37:19;8.20;99.90
14670;DHT22;7423;48.722;9.350;2023-02-01T09:39:47;8.20;99.90
14670;DHT22;7423;48.722;9.350;2023-02-01T09:42:27;8.20;99.90
14670;DHT22;7423;48.722;9.350;2023-02-01T09:45:20;8.20;99.90
14670;DHT22;7423;48.722;9.350;2023-02-01T09:47:57;8.00;99.90
14670;DHT22;7423;48.722;9.350;2023-02-01T09:50:38;9.20;99.90
14670;DHT22;7423;48.722;9.350;2023-02-01T09:53:34;8.00;99.90
14670;DHT22;7423;48.722;9.350;2023-02-01T09:56:12;8.00;99.90
14670;DHT22;7423;48.722;9.350;2023-02-01T09:58:46;8.00;99.90
14670;DHT22;7423;48.722;9.350;2023-02-01T10:01:22;8.00;99.90
14670;DHT22;7423;48.722;9.350;2023-02-01T10:03:57;8.20;99.90
14670;DHT22;7423;48.722;9.350;2023-02-01T10:06:33;8.00;99.90
14670;DHT22;7423;48.722;9.350;2023-02-01T10:15:30;8.00;99.90
14670;DHT22;7423;48.722;9.350;2023-02-01T10:21:36;8.20;99.90
14670;DHT22;7423;48.722;9.350;2023-02-01T10:27:00;8.30;99.90
14670;DHT22;7423;48.722;9.350;2023-02-01T10:29:38;8.50;99.90
14670;DHT22;7423;48.722;9.350;2023-02-01T10:32:18;8.50;99.90
14670;DHT22;7423;48.722;9.350;2023-02-01T10:35:00;8.30;99.90
14670;DHT22;7423;48.722;9.350;2023-02-01T10:37:33;8.40;99.90
14670;DHT22;7423;48.722;9.350;2023-02-01T10:40:36;8.40;99.90
14670;DHT22;7423;48.722;9.350;2023-02-01T10:43:00;8.40;99.90
14670;DHT22;7423;48.722;9.350;2023-02-01T10:45:30;8.50;99.90
14670;DHT22;7423;48.722;9.350;2023-02-01T10:47:58;8.50;99.90
14670;DHT22;7423;48.722;9.350;2023-02-01T10:56:14;8.60;99.90
14670;DHT22;7423;48.722;9.350;2023-02-01T10:58:46;8.50;99.90
14670;DHT22;7423;48.722;9.350;2023-02-01T11:01:21;8.50;99.90
14670;DHT22;7423;48.722;9.350;2023-02-01T11:03:57;8.50;99.90
14670;DHT22;7423;48.722;9.350;2023-02-01T11:06:37;8.60;99.90
14670;DHT22;7423;48.722;9.350;2023-02-01T11:09:10;8.40;99.90
14670;DHT22;7423;48.722;9.350;2023-02-01T11:16:59;8.50;99.90
14670;DHT22;7423;48.722;9.350;2023-02-01T11:19:30;8.60;99.90
14670;DHT22;7423;48.722;9.350;2023-02-01T11:21:59;8.70;99.90
14670;DHT22;7423;48.722;9.350;2023-02-01T11:24:28;8.70;99.90
14670;DHT22;7423;48.722;9.350;2023-02-01T11:27:01;8.70;99.90
14670;DHT22;7423;48.722;9.350;2023-02-01T11:29:41;8.80;99.90
14670;DHT22;7423;48.722;9.350;2023-02-01T11:32:11;8.70;99.90
14670;DHT22;7423;48.722;9.350;2023-02-01T11:34:49;8.70;99.90
14670;DHT22;7423;48.722;9.350;2023-02-01T11:37:27;8.70;99.90
14670;DHT22;7423;48.722;9.350;2023-02-01T11:40:02;8.80;99.90
14670;DHT22;7423;48.722;9.350;2023-02-01T11:42:59;8.70;99.90
14670;DHT22;7423;48.722;9.350;2023-02-01T11:45:34;8.80;99.90
14670;DHT22;7423;48.722;9.350;2023-02-01T11:48:01;8.70;99.90
14670;DHT22;7423;48.722;9.350;2023-02-01T11:56:53;9.00;99.90
14670;DHT22;7423;48.722;9.350;2023-02-01T11:59:50;9.10;99.90
14670;DHT22;7423;48.722;9.350;2023-02-01T12:08:13;9.10;99.90
14670;DHT22;7423;48.722;9.350;2023-02-01T12:14:14;8.80;99.90
14670;DHT22;7423;48.722;9.350;2023-02-01T12:20:28;9.00;99.90
14670;DHT22;7423;48.722;9.350;2023-02-01T12:23:19;9.20;99.90
14670;DHT22;7423;48.722;9.350;2023-02-01T12:42:40;9.20;99.90
14670;DHT22;7423;48.722;9.350;2023-02-01T12:48:28;9.30;99.90
14670;DHT22;7423;48.722;9.350;2023-02-01T12:50:59;9.40;99.90
14670;DHT22;7423;48.722;9.350;2023-02-01T12:56:44;9.20;99.90
14670;DHT22;7423;48.722;9.350;2023-02-01T12:59:21;9.10;99.90
14670;DHT22;7423;48.722;9.350;2023-02-01T13:05:16;9.20;99.90
14670;DHT22;7423;48.722;9.350;2023-02-01T13:15:48;8.90;99.90
14670;DHT22;7423;48.722;9.350;2023-02-01T13:18:21;8.90;99.90
14670;DHT22;7423;48.722;9.350;2023-02-01T13:20:55;9.00;99.90
14670;DHT22;7423;48.722;9.350;2023-02-01T13:23:31;9.00;99.90
14670;DHT22;7423;48.722;9.350;2023-02-01T13:26:01;9.00;99.90
14670;DHT22;7423;48.722;9.350;2023-02-01T13:31:31;9.10;99.90
14670;DHT22;7423;48.722;9.350;2023-02-01T13:40:37;9.20;99.90
14670;DHT22;7423;48.722;9.350;2023-02-01T13:43:22;9.20;99.90
14670;DHT22;7423;48.722;9.350;2023-02-01T13:45:53;9.30;99.90
14670;DHT22;7423;48.722;9.350;2023-02-01T13:51:35;9.40;99.90
14670;DHT22;7423;48.722;9.350;2023-02-01T13:54:04;9.20;99.90
14670;DHT22;7423;48.722;9.350;2023-02-01T13:56:42;9.20;99.90
14670;DHT22;7423;48.722;9.350;2023-02-01T14:02:37;9.30;99.90
14670;DHT22;7423;48.722;9.350;2023-02-01T14:05:08;9.30;99.90
14670;DHT22;7423;48.722;9.350;2023-02-01T14:07:36;9.30;99.90
14670;DHT22;7423;48.722;9.350;2023-02-01T14:13:27;9.00;99.90
14670;DHT22;7423;48.722;9.350;2023-02-01T14:26:50;9.00;99.90
14670;DHT22;7423;48.722;9.350;2023-02-01T14:29:26;9.10;99.90
14670;DHT22;7423;48.722;9.350;2023-02-01T14:42:43;9.20;99.90
14670;DHT22;7423;48.722;9.350;2023-02-01T14:50:34;9.00;99.90
14670;DHT22;7423;48.722;9.350;2023-02-01T14:55:43;8.90;99.90
14670;DHT22;7423;48.722;9.350;2023-02-01T14:58:19;9.00;99.90
14670;DHT22;7423;48.722;9.350;2023-02-01T15:01:13;9.10;99.90
14670;DHT22;7423;48.722;9.350;2023-02-01T15:03:50;9.20;99.90
14670;DHT22;7423;48.722;9.350;2023-02-01T15:06:39;9.20;99.90
14670;DHT22;7423;48.722;9.350;2023-02-01T15:12:04;9.20;99.90
14670;DHT22;7423;48.722;9.350;2023-02-01T15:14:47;9.00;99.90
14670;DHT22;7423;48.722;9.350;2023-02-01T15:17:24;8.80;99.90
14670;DHT22;7423;48.722;9.350;2023-02-01T15:20:03;9.00;99.90
14670;DHT22;7423;48.722;9.350;2023-02-01T15:22:34;9.10;99.90
14670;DHT22;7423;48.722;9.350;2023-02-01T15:25:02;9.10;99.90
14670;DHT22;7423;48.722;9.350;2023-02-01T15:27:31;9.00;99.90
14670;DHT22;7423;48.722;9.350;2023-02-01T15:30:25;9.10;99.90
14670;DHT22;7423;48.722;9.350;2023-02-01T15:35:43;9.10;99.90
14670;DHT22;7423;48.722;9.350;2023-02-01T15:49:28;9.10;99.90
14670;DHT22;7423;48.722;9.350;2023-02-01T15:52:00;8.90;99.90
14670;DHT22;7423;48.722;9.350;2023-02-01T15:54:49;8.80;99.90
14670;DHT22;7423;48.722;9.350;2023-02-01T15:57:31;8.80;99.90
14670;DHT22;7423;48.722;9.350;2023-02-01T16:00:07;8.90;99.90
14670;DHT22;7423;48.722;9.350;2023-02-01T16:02:55;9.10;99.90
14670;DHT22;7423;48.722;9.350;2023-02-01T16:05:35;9.20;99.90
14670;DHT22;7423;48.722;9.350;2023-02-01T16:08:22;9.00;99.90
14670;DHT22;7423;48.722;9.350;2023-02-01T16:14:26;9.00;99.90
14670;DHT22;7423;48.722;9.350;2023-02-01T16:16:56;8.80;99.90
14670;DHT22;7423;48.722;9.350;2023-02-01T16:19:24;8.70;99.90
14670;DHT22;7423;48.722;9.350;2023-02-01T16:21:55;8.70;99.90
14670;DHT22;7423;48.722;9.350;2023-02-01T16:24:22;8.80;99.90
14670;DHT22;7423;48.722;9.350;2023-02-01T16:26:52;8.90;99.90
14670;DHT22;7423;48.722;9.350;2023-02-01T16:29:19;8.90;99.90
14670;DHT22;7423;48.722;9.350;2023-02-01T16:31:48;8.90;99.90
14670;DHT22;7423;48.722;9.350;2023-02-01T16:34:17;8.90;99.90
14670;DHT22;7423;48.722;9.350;2023-02-01T16:36:47;9.00;99.90
14670;DHT22;7423;48.722;9.350;2023-02-01T16:39:19;9.10;99.90
14670;DHT22;7423;48.722;9.350;2023-02-01T16:41:46;8.90;99.90
14670;DHT22;7423;48.722;9.350;2023-02-01T16:44:13;8.70;99.90
14670;DHT22;7423;48.722;9.350;2023-02-01T16:46:42;8.60;99.90
14670;DHT22;7423;48.722;9.350;2023-02-01T16:49:22;8.70;99.90
14670;DHT22;7423;48.722;9.350;2023-02-01T16:51:51;8.80;99.90
14670;DHT22;7423;48.722;9.350;2023-02-01T16:54:21;8.70;99.90
14670;DHT22;7423;48.722;9.350;2023-02-01T16:56:48;8.60;99.90
14670;DHT22;7423;48.722;9.350;2023-02-01T16:59:15;8.60;99.90
14670;DHT22;7423;48.722;9.350;2023-02-01T17:01:42;8.80;99.90
14670;DHT22;7423;48.722;9.350;2023-02-01T17:04:09;8.80;99.90
14670;DHT22;7423;48.722;9.350;2023-02-01T17:06:37;8.70;99.90
14670;DHT22;7423;48.722;9.350;2023-02-01T17:09:05;8.70;99.90
14670;DHT22;7423;48.722;9.350;2023-02-01T17:11:33;8.80;99.90
14670;DHT22;7423;48.722;9.350;2023-02-01T17:14:15;8.70;99.90
14670;DHT22;7423;48.722;9.350;2023-02-01T17:16:45;8.60;99.90
14670;DHT22;7423;48.722;9.350;2023-02-01T17:19:19;8.60;99.90
14670;DHT22;7423;48.722;9.350;2023-02-01T17:21:52;8.40;99.90
14670;DHT22;7423;48.722;9.350;2023-02-01T17:24:25;8.40;99.90
14670;DHT22;7423;48.722;9.350;2023-02-01T17:27:01;8.60;99.90
14670;DHT22;7423;48.722;9.350;2023-02-01T17:29:30;8.70;99.90
14670;DHT22;7423;48.722;9.350;2023-02-01T17:31:57;8.60;99.90
14670;DHT22;7423;48.722;9.350;2023-02-01T17:34:26;8.60;99.90
14670;DHT22;7423;48.722;9.350;2023-02-01T17:36:53;8.70;99.90
14670;DHT22;7423;48.722;9.350;2023-02-01T17:39:20;8.70;99.90
14670;DHT22;7423;48.722;9.350;2023-02-01T17:42:10;8.50;99.90
14670;DHT22;7423;48.722;9.350;2023-02-01T17:44:37;8.30;99.90
14670;DHT22;7423;48.722;9.350;2023-02-01T17:47:04;8.30;99.90
14670;DHT22;7423;48.722;9.350;2023-02-01T17:49:31;8.30;99.90
14670;DHT22;7423;48.722;9.350;2023-02-01T17:52:00;8.20;99.90
14670;DHT22;7423;48.722;9.350;2023-02-01T17:54:27;8.40;99.90
14670;DHT22;7423;48.722;9.350;2023-02-01T17:56:54;8.40;99.90
14670;DHT22;7423;48.722;9.350;2023-02-01T17:59:20;8.50;99.90
14670;DHT22;7423;48.722;9.350;2023-02-01T18:01:47;8.40;99.90
14670;DHT22;7423;48.722;9.350;2023-02-01T18:04:16;9.20;99.90
14670;DHT22;7423;48.722;9.350;2023-02-01T18:06:44;8.20;99.90
14670;DHT22;7423;48.722;9.350;2023-02-01T18:09:11;8.20;99.90
14670;DHT22;7423;48.722;9.350;2023-02-01T18:11:38;8.20;99.90
14670;DHT22;7423;48.722;9.350;2023-02-01T18:14:05;8.20;99.90
14670;DHT22;7423;48.722;9.350;2023-02-01T18:16:33;8.20;99.90
14670;DHT22;7423;48.722;9.350;2023-02-01T18:19:01;8.20;99.90
14670;DHT22;7423;48.722;9.350;2023-02-01T18:21:40;8.20;99.90
14670;DHT22;7423;48.722;9.350;2023-02-01T18:24:12;8.20;99.90
14670;DHT22;7423;48.722;9.350;2023-02-01T18:26:40;8.20;99.90
14670;DHT22;7423;48.722;9.350;2023-02-01T18:29:08;8.30;99.90
14670;DHT22;7423;48.722;9.350;2023-02-01T18:31:40;8.40;99.90
14670;DHT22;7423;48.722;9.350;2023-02-01T18:34:11;8.40;99.90
14670;DHT22;7423;48.722;9.350;2023-02-01T18:36:48;8.40;99.90
14670;DHT22;7423;48.722;9.350;2023-02-01T18:39:16;8.50;99.90
14670;DHT22;7423;48.722;9.350;2023-02-01T18:41:45;8.50;99.90
14670;DHT22;7423;48.722;9.350;2023-02-01T18:44:14;9.40;99.90
14670;DHT22;7423;48.722;9.350;2023-02-01T18:46:42;8.70;99.90
14670;DHT22;7423;48.722;9.350;2023-02-01T18:49:09;8.70;99.90
14670;DHT22;7423;48.722;9.350;2023-02-01T18:51:39;8.50;99.90
14670;DHT22;7423;48.722;9.350;2023-02-01T18:54:09;8.50;99.90
14670;DHT22;7423;48.722;9.350;2023-02-01T18:56:37;8.50;99.90
14670;DHT22;7423;48.722;9.350;2023-02-01T18:59:05;8.50;99.90
14670;DHT22;7423;48.722;9.350;2023-02-01T19:01:31;8.40;99.90
14670;DHT22;7423;48.722;9.350;2023-02-01T19:03:58;8.50;99.90
14670;DHT22;7423;48.722;9.350;2023-02-01T19:06:33;8.50;99.90
14670;DHT22;7423;48.722;9.350;2023-02-01T19:09:00;8.50;99.90
14670;DHT22;7423;48.722;9.350;2023-02-01T19:11:26;8.50;99.90
14670;DHT22;7423;48.722;9.350;2023-02-01T19:13:53;8.50;99.90
14670;DHT22;7423;48.722;9.350;2023-02-01T19:16:21;8.50;99.90
14670;DHT22;7423;48.722;9.350;2023-02-01T19:18:52;8.50;99.90
14670;DHT22;7423;48.722;9.350;2023-02-01T19:21:19;8.50;99.90
14670;DHT22;7423;48.722;9.350;2023-02-01T19:23:46;8.40;99.90
14670;DHT22;7423;48.722;9.350;2023-02-01T19:26:15;8.40;99.90
14670;DHT22;7423;48.722;9.350;2023-02-01T19:28:42;8.50;99.90
14670;DHT22;7423;48.722;9.350;2023-02-01T19:31:12;8.40;99.90